Time;durP1;ratioP1;P1;durP2;ratioP2;P2;SDS_P1;SDS_P2;PMS_P1;PMS_P2;Temp;Humidity;BMP_temperature;BMP_pressure;BME280_temperature;BME280_humidity;BME280_pressure;Samples;Min_cycle;Max_cycle;Signal;HPM_P1;HPM_P2
2022/10/10 00:02:25;;;;;;;4.68;2.95;;;9.10;99.90;;;;;;5016709;28;20021;-71
2022/10/10 00:04:54;;;;;;;11.00;3.00;;;9.10;99.90;;;;;;5016340;28;20049;-73
2022/10/10 00:07:20;;;;;;;7.43;3.45;;;9.20;99.90;;;;;;5016296;28;20036;-71
2022/10/10 00:09:46;;;;;;;8.23;2.92;;;9.20;99.90;;;;;;4998682;28;20038;-72
2022/10/10 00:12:12;;;;;;;7.55;2.97;;;9.10;99.90;;;;;;5016300;28;20466;-71
2022/10/10 00:14:38;;;;;;;7.13;3.20;;;9.10;99.90;;;;;;4998717;28;20033;-71
2022/10/10 00:17:04;;;;;;;8.80;3.22;;;9.10;99.90;;;;;;5016154;28;20041;-72
2022/10/10 00:19:30;;;;;;;10.93;3.30;;;9.10;99.90;;;;;;4998550;28;20061;-72
2022/10/10 00:21:55;;;;;;;10.10;3.50;;;9.10;99.90;;;;;;5015974;28;20038;-72
2022/10/10 00:24:21;;;;;;;7.95;3.00;;;9.10;99.90;;;;;;5015876;28;20445;-72
2022/10/10 00:26:47;;;;;;;11.10;3.58;;;9.00;99.90;;;;;;4998499;28;20048;-72
2022/10/10 00:29:12;;;;;;;7.47;3.25;;;9.00;99.90;;;;;;4998017;28;20108;-71
2022/10/10 00:31:38;;;;;;;7.53;3.13;;;9.00;99.90;;;;;;5015848;28;20026;-71
2022/10/10 00:34:03;;;;;;;7.88;3.38;;;9.00;99.90;;;;;;5015973;28;20033;-71
2022/10/10 00:36:29;;;;;;;5.10;3.20;;;9.00;99.90;;;;;;5016098;28;20026;-72
2022/10/10 00:38:55;;;;;;;5.13;3.17;;;8.90;99.90;;;;;;4998181;28;20022;-71
2022/10/10 00:41:21;;;;;;;8.10;3.70;;;8.90;99.90;;;;;;4997901;28;20063;-71
2022/10/10 00:44:09;;;;;;;12.70;3.67;;;8.80;99.90;;;;;;4998162;28;20057;-71
2022/10/10 00:46:35;;;;;;;7.05;3.58;;;8.80;99.90;;;;;;5015650;28;20057;-71
2022/10/10 00:49:03;;;;;;;10.35;3.88;;;8.80;99.90;;;;;;5015757;28;20072;-72
2022/10/10 00:51:29;;;;;;;7.93;3.78;;;8.80;99.90;;;;;;5015567;28;20068;-71
2022/10/10 00:54:04;;;;;;;6.07;3.65;;;8.70;99.90;;;;;;5015861;28;20034;-71
2022/10/10 00:56:38;;;;;;;7.10;3.40;;;8.70;99.90;;;;;;5015259;28;20026;-71
2022/10/10 00:59:07;;;;;;;5.78;3.53;;;8.70;99.90;;;;;;4998258;28;20029;-72
2022/10/10 01:01:33;;;;;;;8.95;3.53;;;8.70;99.90;;;;;;5015620;28;20038;-72
2022/10/10 01:04:00;;;;;;;6.20;3.30;;;8.70;99.90;;;;;;5016004;28;20030;-72
2022/10/10 01:06:27;;;;;;;8.18;3.80;;;8.70;99.90;;;;;;4998558;28;20038;-72
2022/10/10 01:08:54;;;;;;;4.53;3.35;;;8.60;99.90;;;;;;5018606;28;20040;-72
2022/10/10 01:11:30;;;;;;;10.82;3.95;;;8.60;99.90;;;;;;5018706;28;20471;-72
2022/10/10 01:14:15;;;;;;;7.97;3.53;;;8.60;99.90;;;;;;5019286;28;20057;-73
2022/10/10 01:17:04;;;;;;;5.97;3.38;;;8.60;99.90;;;;;;5017561;28;20042;-72
2022/10/10 01:20:04;;;;;;;5.20;3.35;;;8.50;99.90;;;;;;5016441;28;20030;-71
2022/10/10 01:22:56;;;;;;;7.68;3.53;;;8.50;99.90;;;;;;4998183;28;20462;-71
2022/10/10 01:25:30;;;;;;;7.38;3.33;;;8.50;99.90;;;;;;4997710;28;20030;-71
2022/10/10 01:28:03;;;;;;;7.75;3.20;;;8.50;99.90;;;;;;5015033;28;20482;-71
2022/10/10 01:30:30;;;;;;;7.30;3.17;;;8.50;99.90;;;;;;4997499;28;20037;-71
2022/10/10 01:33:01;;;;;;;5.88;3.05;;;8.50;99.90;;;;;;4997248;28;20030;-71
2022/10/10 01:35:45;;;;;;;8.85;3.80;;;8.50;99.90;;;;;;5015190;28;20156;-71
2022/10/10 01:38:29;;;;;;;10.23;3.08;;;8.40;99.90;;;;;;4997196;28;20036;-72
2022/10/10 01:41:09;;;;;;;6.25;2.97;;;8.40;99.90;;;;;;5013910;28;20048;-72
2022/10/10 01:43:36;;;;;;;7.47;3.33;;;8.40;99.90;;;;;;4997071;28;20060;-71
2022/10/10 01:46:10;;;;;;;7.80;3.25;;;8.40;99.90;;;;;;4996789;28;20030;-71
2022/10/10 01:48:36;;;;;;;6.78;3.33;;;8.40;99.90;;;;;;5014457;28;20072;-71
2022/10/10 01:51:26;;;;;;;6.47;3.42;;;8.30;99.90;;;;;;4996848;28;20034;-71
2022/10/10 01:54:11;;;;;;;9.50;3.10;;;8.40;99.90;;;;;;4997119;28;20030;-71
2022/10/10 01:57:05;;;;;;;9.55;3.20;;;8.40;99.90;;;;;;5014091;28;20088;-70
2022/10/10 01:59:36;;;;;;;4.47;2.67;;;8.40;99.90;;;;;;4996636;28;20030;-71
2022/10/10 02:02:22;;;;;;;8.98;2.95;;;8.40;99.90;;;;;;5014719;28;20026;-71
2022/10/10 02:05:21;;;;;;;9.73;2.40;;;8.40;99.90;;;;;;5014468;28;20034;-71
2022/10/10 02:07:52;;;;;;;7.68;2.90;;;8.50;99.90;;;;;;5014854;28;20026;-72
2022/10/10 02:10:22;;;;;;;7.93;2.90;;;8.40;99.90;;;;;;4997088;28;20037;-71
2022/10/10 02:12:48;;;;;;;5.20;3.25;;;8.40;99.90;;;;;;5015183;28;20034;-72
2022/10/10 02:15:19;;;;;;;7.40;2.55;;;8.40;99.90;;;;;;5014464;28;20030;-71
2022/10/10 02:17:47;;;;;;;5.13;2.92;;;8.40;99.90;;;;;;5014573;28;20042;-71
2022/10/10 02:20:18;;;;;;;4.05;2.50;;;8.40;99.90;;;;;;4996483;28;20038;-71
2022/10/10 02:22:45;;;;;;;5.03;2.72;;;8.40;99.90;;;;;;4997083;28;20121;-71
2022/10/10 02:25:11;;;;;;;7.32;2.70;;;8.40;99.90;;;;;;5014167;28;20080;-71
2022/10/10 02:27:58;;;;;;;8.00;2.70;;;8.40;99.90;;;;;;5014084;28;20030;-71
2022/10/10 02:30:24;;;;;;;4.72;2.28;;;8.40;99.90;;;;;;5014267;28;20037;-71
2022/10/10 02:33:00;;;;;;;4.68;2.47;;;8.40;99.90;;;;;;5014334;28;20084;-71
2022/10/10 02:35:31;;;;;;;11.70;2.72;;;8.40;99.90;;;;;;5013711;28;20323;-71
2022/10/10 02:37:58;;;;;;;4.40;2.63;;;8.40;99.90;;;;;;4996424;28;20437;-71
2022/10/10 02:40:27;;;;;;;4.97;2.63;;;8.40;99.90;;;;;;5013859;28;20030;-70
2022/10/10 02:42:56;;;;;;;7.95;2.78;;;8.40;99.90;;;;;;5013947;28;20022;-71
2022/10/10 02:45:22;;;;;;;5.03;2.70;;;8.40;99.90;;;;;;5013610;28;20034;-70
2022/10/10 02:47:47;;;;;;;6.72;2.85;;;8.40;99.90;;;;;;5013817;28;20366;-71
2022/10/10 02:50:13;;;;;;;6.63;2.85;;;8.40;99.90;;;;;;5013836;28;20409;-71
2022/10/10 02:52:39;;;;;;;5.97;2.60;;;8.40;99.90;;;;;;4999182;28;20491;-72
2022/10/10 02:55:05;;;;;;;7.50;2.42;;;8.40;99.90;;;;;;5017615;28;20028;-70
2022/10/10 02:57:30;;;;;;;5.72;2.83;;;8.40;99.90;;;;;;5017620;28;20037;-70
2022/10/10 02:59:56;;;;;;;5.30;2.53;;;8.40;99.90;;;;;;4999847;28;20125;-70
2022/10/10 03:02:22;;;;;;;3.90;2.50;;;8.40;99.90;;;;;;5017237;28;20493;-71
2022/10/10 03:04:47;;;;;;;5.47;3.15;;;8.40;99.90;;;;;;4999900;28;20026;-71
2022/10/10 03:07:13;;;;;;;7.97;3.30;;;8.30;99.90;;;;;;4999859;28;20528;-71
2022/10/10 03:09:39;;;;;;;4.97;2.67;;;8.30;99.90;;;;;;5017438;28;20034;-71
2022/10/10 03:12:04;;;;;;;5.53;2.88;;;8.30;99.90;;;;;;5017602;28;20109;-70
2022/10/10 03:14:31;;;;;;;7.63;2.80;;;8.30;99.90;;;;;;5000041;28;20050;-70
2022/10/10 03:16:57;;;;;;;7.75;2.80;;;8.30;99.90;;;;;;5017416;28;20050;-71
2022/10/10 03:19:23;;;;;;;5.35;2.97;;;8.40;99.90;;;;;;5017143;28;20026;-71
2022/10/10 03:21:49;;;;;;;3.83;2.65;;;8.30;99.90;;;;;;4999651;28;20394;-70
2022/10/10 03:24:14;;;;;;;5.35;3.22;;;8.30;99.90;;;;;;4999510;28;20030;-70
2022/10/10 03:26:40;;;;;;;7.57;3.30;;;8.30;99.90;;;;;;4999556;28;20382;-70
2022/10/10 03:29:06;;;;;;;8.13;2.90;;;8.30;99.90;;;;;;4999425;28;20029;-70
2022/10/10 03:31:31;;;;;;;3.95;2.70;;;8.30;99.90;;;;;;5016976;28;20041;-70
2022/10/10 03:33:57;;;;;;;5.25;2.90;;;8.30;99.90;;;;;;4999819;28;20616;-70
2022/10/10 03:36:23;;;;;;;6.65;3.00;;;8.30;99.90;;;;;;5017154;28;20489;-70
2022/10/10 03:38:49;;;;;;;8.25;3.40;;;8.30;99.90;;;;;;4999404;28;20026;-70
2022/10/10 03:41:14;;;;;;;5.80;2.50;;;8.30;99.90;;;;;;4999394;28;20034;-71
2022/10/10 03:43:40;;;;;;;5.03;2.70;;;8.30;99.90;;;;;;4999182;28;20457;-70
2022/10/10 03:46:06;;;;;;;6.53;2.97;;;8.30;99.90;;;;;;4999254;28;20030;-71
2022/10/10 03:48:32;;;;;;;8.48;3.70;;;8.30;99.90;;;;;;5016668;28;20026;-71
2022/10/10 03:50:57;;;;;;;8.60;3.15;;;8.20;99.90;;;;;;4999034;28;20051;-71
2022/10/10 03:53:23;;;;;;;5.32;3.17;;;8.20;99.90;;;;;;5016574;28;20104;-70
2022/10/10 03:55:48;;;;;;;4.13;2.70;;;8.20;99.90;;;;;;5016490;28;20484;-70
2022/10/10 03:58:14;;;;;;;5.78;2.80;;;8.20;99.90;;;;;;5016558;28;20030;-71
2022/10/10 04:00:40;;;;;;;7.88;3.00;;;8.20;99.90;;;;;;5016359;28;20109;-70
2022/10/10 04:03:06;;;;;;;6.38;2.92;;;8.20;99.90;;;;;;5015292;28;20022;-71
2022/10/10 04:05:36;;;;;;;10.88;3.03;;;8.20;99.90;;;;;;5016336;28;20585;-70
2022/10/10 04:08:03;;;;;;;7.40;3.28;;;8.30;99.90;;;;;;5016374;28;20456;-70
2022/10/10 04:10:29;;;;;;;5.20;2.90;;;8.30;99.90;;;;;;5015928;28;20038;-68
2022/10/10 04:12:54;;;;;;;5.82;3.10;;;8.30;99.90;;;;;;5016091;28;20026;-72
2022/10/10 04:15:20;;;;;;;5.32;2.70;;;8.40;99.90;;;;;;4998978;28;20022;-70
2022/10/10 04:17:46;;;;;;;9.38;3.53;;;8.50;99.90;;;;;;5015688;28;20521;-70
2022/10/10 04:20:11;;;;;;;10.80;3.65;;;8.50;99.90;;;;;;5016013;28;20034;-69
2022/10/10 04:22:37;;;;;;;7.20;3.20;;;8.50;99.90;;;;;;5015725;28;20113;-70
2022/10/10 04:25:03;;;;;;;6.78;3.42;;;8.50;99.90;;;;;;5015705;28;20111;-69
2022/10/10 04:27:29;;;;;;;6.55;3.28;;;8.60;99.90;;;;;;4998906;28;20029;-69
2022/10/10 04:29:55;;;;;;;6.85;2.75;;;8.60;99.90;;;;;;5015912;28;20532;-71
2022/10/10 04:32:20;;;;;;;6.05;2.92;;;8.60;99.90;;;;;;5016057;28;20379;-70
2022/10/10 04:34:46;;;;;;;7.22;2.92;;;8.70;99.90;;;;;;4999091;28;20037;-70
2022/10/10 04:37:11;;;;;;;7.72;3.17;;;8.70;99.90;;;;;;4998630;28;20466;-71
2022/10/10 04:39:37;;;;;;;7.05;2.63;;;9.00;99.90;;;;;;4998683;28;20461;-70
2022/10/10 04:42:03;;;;;;;4.05;2.72;;;9.00;99.90;;;;;;5015758;28;20121;-76
2022/10/10 04:44:29;;;;;;;6.13;2.72;;;9.00;99.90;;;;;;4998792;28;20030;-65
2022/10/10 04:46:54;;;;;;;9.95;3.10;;;8.90;99.90;;;;;;4999503;28;20028;-79
2022/10/10 04:49:20;;;;;;;4.15;2.60;;;8.90;99.90;;;;;;5016401;28;20033;-80
2022/10/10 04:51:46;;;;;;;9.23;2.65;;;9.00;99.90;;;;;;5015558;28;20144;-74
2022/10/10 04:54:12;;;;;;;8.32;3.40;;;9.10;99.90;;;;;;5015446;28;20028;-77
2022/10/10 04:56:39;;;;;;;9.95;3.45;;;9.10;99.90;;;;;;5015154;28;20386;-76
2022/10/10 04:59:05;;;;;;;4.72;2.70;;;9.10;99.90;;;;;;5015361;28;20029;-81
2022/10/10 05:01:31;;;;;;;6.43;3.10;;;9.20;99.90;;;;;;4999761;28;20029;-78
2022/10/10 05:03:58;;;;;;;6.43;3.53;;;9.20;99.90;;;;;;5016281;28;20037;-80
2022/10/10 05:06:23;;;;;;;4.53;3.15;;;9.10;99.90;;;;;;5017035;28;20025;-79
2022/10/10 05:08:49;;;;;;;3.42;2.70;;;9.20;99.90;;;;;;5016362;28;20402;-79
2022/10/10 05:11:15;;;;;;;6.68;2.97;;;9.20;99.90;;;;;;5015941;28;20081;-80
2022/10/10 05:13:40;;;;;;;5.90;2.60;;;9.10;99.90;;;;;;4998328;28;20034;-79
2022/10/10 05:16:06;;;;;;;6.70;2.97;;;9.10;99.90;;;;;;5015733;28;20030;-79
2022/10/10 05:18:35;;;;;;;6.43;2.97;;;9.10;99.90;;;;;;5015451;28;20176;-80
2022/10/10 05:21:01;;;;;;;5.72;2.78;;;9.00;99.90;;;;;;5015281;28;20032;-80
2022/10/10 05:23:26;;;;;;;5.30;2.95;;;9.00;99.90;;;;;;5015175;28;20046;-79
2022/10/10 05:25:52;;;;;;;6.63;3.50;;;9.00;99.90;;;;;;5015405;28;20033;-80
2022/10/10 05:28:18;;;;;;;6.93;2.78;;;9.00;99.90;;;;;;5014832;28;20394;-79
2022/10/10 05:30:43;;;;;;;5.45;2.80;;;9.00;99.90;;;;;;5015253;28;20076;-79
2022/10/10 05:33:09;;;;;;;7.80;2.67;;;9.00;99.90;;;;;;4997758;28;20521;-79
2022/10/10 05:35:35;;;;;;;4.65;2.97;;;9.00;99.90;;;;;;4997496;28;20092;-79
2022/10/10 05:38:00;;;;;;;6.88;2.88;;;9.00;99.90;;;;;;5015044;28;20360;-79
2022/10/10 05:40:26;;;;;;;5.38;2.75;;;9.00;99.90;;;;;;4997321;28;20034;-80
2022/10/10 05:42:52;;;;;;;7.75;3.47;;;9.00;99.90;;;;;;5014933;28;20045;-79
2022/10/10 05:45:18;;;;;;;7.88;3.25;;;9.00;99.90;;;;;;5014924;28;20026;-79
2022/10/10 05:47:43;;;;;;;5.90;3.08;;;9.10;99.90;;;;;;5015008;28;20352;-79
2022/10/10 05:50:24;;;;;;;8.55;2.50;;;9.10;99.90;;;;;;5015249;28;20470;-80
2022/10/10 05:52:50;;;;;;;6.85;3.05;;;9.10;99.90;;;;;;5015854;28;20026;-79
2022/10/10 05:55:16;;;;;;;9.65;2.92;;;9.10;99.90;;;;;;5016047;28;20108;-79
2022/10/10 05:57:41;;;;;;;8.23;3.25;;;9.20;99.90;;;;;;5014539;28;20030;-79
2022/10/10 06:00:07;;;;;;;8.68;3.33;;;9.20;99.90;;;;;;5015015;28;20033;-79
2022/10/10 06:02:34;;;;;;;6.40;3.10;;;9.30;99.90;;;;;;5015275;28;20040;-79
2022/10/10 06:04:59;;;;;;;6.70;2.70;;;9.30;99.90;;;;;;5014625;28;20026;-79
2022/10/10 06:07:25;;;;;;;11.15;2.67;;;9.40;99.90;;;;;;5014417;28;20481;-79
2022/10/10 06:09:51;;;;;;;15.32;3.40;;;9.40;99.90;;;;;;5014567;28;20026;-79
2022/10/10 06:12:16;;;;;;;10.25;2.70;;;9.50;99.90;;;;;;5014704;28;20093;-79
2022/10/10 06:14:42;;;;;;;7.75;3.05;;;9.50;99.90;;;;;;4996953;28;20096;-80
2022/10/10 06:17:08;;;;;;;10.02;3.53;;;9.60;99.90;;;;;;5014674;28;20054;-80
2022/10/10 06:19:33;;;;;;;9.23;3.00;;;9.70;99.90;;;;;;5014700;28;20037;-80
2022/10/10 06:21:59;;;;;;;10.57;2.58;;;9.90;99.90;;;;;;4997279;28;20026;-79
2022/10/10 06:24:24;;;;;;;4.15;2.60;;;10.10;99.90;;;;;;5019072;28;20026;-81
2022/10/10 06:26:50;;;;;;;3.47;2.70;;;10.30;99.90;;;;;;5019327;28;20022;-79
2022/10/10 06:29:16;;;;;;;6.85;2.83;;;10.40;99.90;;;;;;5020830;28;20165;-80
2022/10/10 06:31:41;;;;;;;4.35;2.83;;;10.60;99.90;;;;;;5003287;28;20065;-80
2022/10/10 06:34:07;;;;;;;9.45;2.63;;;10.70;99.90;;;;;;5021221;28;20026;-64
2022/10/10 06:36:33;;;;;;;14.70;2.85;;;10.90;99.90;;;;;;5020388;28;20034;-63
2022/10/10 06:38:58;;;;;;;5.18;2.45;;;11.70;99.90;;;;;;5020325;28;20378;-63
2022/10/10 06:41:24;;;;;;;4.05;2.20;;;12.10;99.90;;;;;;5002603;28;20414;-63
2022/10/10 06:43:50;;;;;;;6.15;1.92;;;12.40;99.90;;;;;;5002314;28;20126;-63
2022/10/10 06:46:16;;;;;;;5.82;2.58;;;13.40;99.90;;;;;;5020195;28;20061;-63
2022/10/10 06:48:42;;;;;;;10.60;2.90;;;13.60;99.90;;;;;;5020399;28;20451;-63
2022/10/10 06:51:12;;;;;;;7.53;2.20;;;13.70;99.90;;;;;;5020237;28;20072;-63
2022/10/10 06:53:38;;;;;;;4.78;2.17;;;13.30;99.90;;;;;;5020279;28;20078;-64
2022/10/10 06:56:04;;;;;;;4.53;1.98;;;13.00;99.90;;;;;;5019904;28;20065;-63
2022/10/10 06:58:30;;;;;;;4.65;2.10;;;12.70;99.90;;;;;;5020143;28;20484;-63
2022/10/10 07:00:58;;;;;;;5.72;3.03;;;12.70;99.90;;;;;;5020306;28;20034;-63
2022/10/10 07:03:25;;;;;;;4.10;2.45;;;12.60;99.90;;;;;;5020086;28;20038;-63
2022/10/10 07:05:59;;;;;;;5.95;2.75;;;12.50;99.90;;;;;;5019990;28;20040;-63
2022/10/10 07:08:26;;;;;;;3.90;2.42;;;12.70;99.90;;;;;;5020184;28;20030;-63
2022/10/10 07:10:51;;;;;;;4.38;2.55;;;12.80;99.90;;;;;;5020047;28;20026;-64
2022/10/10 07:13:17;;;;;;;5.68;2.00;;;13.00;99.90;;;;;;5002340;28;20371;-62
2022/10/10 07:15:43;;;;;;;6.13;2.95;;;13.20;99.90;;;;;;5019776;28;20045;-62
2022/10/10 07:18:09;;;;;;;5.55;2.45;;;13.50;99.90;;;;;;5001968;28;20049;-62
2022/10/10 07:20:36;;;;;;;12.10;3.15;;;13.70;99.90;;;;;;5019813;28;20355;-62
2022/10/10 07:23:03;;;;;;;6.88;2.55;;;14.00;99.90;;;;;;5020440;28;20022;-62
2022/10/10 07:25:29;;;;;;;3.45;2.17;;;14.10;99.90;;;;;;5020000;28;20029;-63
2022/10/10 07:27:55;;;;;;;6.57;2.20;;;14.20;99.90;;;;;;5002270;28;20022;-62
2022/10/10 07:30:22;;;;;;;6.28;2.28;;;14.50;99.90;;;;;;5019867;28;20033;-62
2022/10/10 07:32:48;;;;;;;9.18;2.40;;;14.80;99.90;;;;;;5019787;28;20037;-63
2022/10/10 07:35:14;;;;;;;4.05;2.50;;;14.90;99.90;;;;;;5002182;28;20049;-63
2022/10/10 07:37:39;;;;;;;11.60;2.40;;;15.20;99.90;;;;;;5017789;28;20026;-62
2022/10/10 07:40:07;;;;;;;5.38;2.20;;;15.50;99.90;;;;;;4998865;28;20084;-62
2022/10/10 07:42:33;;;;;;;7.47;2.30;;;15.90;99.90;;;;;;5016687;28;20038;-62
2022/10/10 07:44:59;;;;;;;5.65;2.30;;;16.20;99.90;;;;;;5016683;28;20381;-62
2022/10/10 07:47:25;;;;;;;9.13;2.42;;;16.60;99.90;;;;;;5016573;28;20080;-63
2022/10/10 07:49:50;;;;;;;5.85;2.20;;;16.90;99.50;;;;;;5016556;28;20033;-62
2022/10/10 07:52:16;;;;;;;5.90;2.28;;;17.20;98.60;;;;;;5016457;28;20050;-62
2022/10/10 07:54:42;;;;;;;6.32;1.90;;;17.40;97.90;;;;;;5016401;28;20116;-62
2022/10/10 07:57:08;;;;;;;4.50;1.80;;;17.70;97.20;;;;;;5016372;28;20033;-63
2022/10/10 07:59:33;;;;;;;6.53;2.00;;;17.70;96.60;;;;;;5016277;28;20063;-62
2022/10/10 08:01:59;;;;;;;8.25;2.70;;;17.90;96.40;;;;;;5016230;28;20030;-63
2022/10/10 08:04:25;;;;;;;10.10;2.60;;;18.10;95.80;;;;;;5016035;28;20066;-62
2022/10/10 08:06:51;;;;;;;7.03;2.45;;;18.00;95.30;;;;;;5016014;28;20095;-62
2022/10/10 08:09:16;;;;;;;8.80;2.55;;;18.10;95.20;;;;;;5015770;28;20029;-63
2022/10/10 08:11:42;;;;;;;5.93;1.90;;;18.10;94.80;;;;;;4998580;28;20030;-62
2022/10/10 08:14:08;;;;;;;4.93;2.35;;;18.00;94.80;;;;;;4998480;28;20026;-63
2022/10/10 08:16:34;;;;;;;5.50;2.22;;;18.00;94.60;;;;;;5015964;28;20042;-63
2022/10/10 08:18:59;;;;;;;4.75;1.60;;;18.10;94.70;;;;;;5015907;28;20025;-63
2022/10/10 08:21:25;;;;;;;6.43;2.08;;;18.40;93.90;;;;;;5015856;28;20029;-62
2022/10/10 08:23:51;;;;;;;4.72;2.17;;;18.60;93.80;;;;;;5015616;28;20437;-63
2022/10/10 08:26:18;;;;;;;5.28;2.85;;;18.70;92.90;;;;;;5016140;28;20435;-63
2022/10/10 08:28:44;;;;;;;6.20;2.20;;;18.80;92.60;;;;;;5015797;28;20021;-63
2022/10/10 08:31:13;;;;;;;8.70;2.00;;;18.90;92.40;;;;;;5015735;28;20108;-63
2022/10/10 08:33:40;;;;;;;6.70;2.03;;;18.90;91.80;;;;;;4998548;28;20026;-62
2022/10/10 08:36:09;;;;;;;4.60;2.00;;;19.20;91.30;;;;;;5015665;28;20022;-63
2022/10/10 08:38:35;;;;;;;6.22;1.98;;;19.30;91.10;;;;;;5015647;28;20033;-62
2022/10/10 08:41:09;;;;;;;7.30;2.20;;;19.60;90.10;;;;;;5015365;28;20034;-63
2022/10/10 08:43:48;;;;;;;4.70;2.30;;;19.70;89.90;;;;;;5015704;28;20038;-76
2022/10/10 08:46:20;;;;;;;5.00;1.75;;;19.60;89.60;;;;;;5015881;28;20033;-76
2022/10/10 08:48:47;;;;;;;7.72;1.90;;;19.70;89.10;;;;;;5015345;28;20025;-76
2022/10/10 08:51:23;;;;;;;8.98;2.17;;;20.00;87.50;;;;;;5015459;28;20503;-77
2022/10/10 08:53:52;;;;;;;10.80;2.13;;;20.00;87.40;;;;;;5015854;28;20032;-78
2022/10/10 08:56:22;;;;;;;;;;;20.40;86.00;;;;;;5016220;28;20026;-78
2022/10/10 08:58:54;;;;;;;7.75;1.75;;;20.70;84.30;;;;;;5015893;28;19905;-78
2022/10/10 09:01:24;;;;;;;4.93;2.00;;;21.20;83.10;;;;;;5015646;28;20041;-78
2022/10/10 09:03:53;;;;;;;7.88;1.90;;;21.80;79.30;;;;;;5015700;28;20037;-78
2022/10/10 09:06:40;;;;;;;5.47;1.85;;;21.90;78.30;;;;;;5015209;28;20113;-77
2022/10/10 09:09:26;;;;;;;8.38;2.55;;;22.60;76.20;;;;;;5015176;28;20026;-77
2022/10/10 09:12:14;;;;;;;9.63;2.20;;;23.00;73.30;;;;;;5015096;28;20536;-77
2022/10/10 09:15:02;;;;;;;6.35;2.00;;;23.20;70.90;;;;;;5015139;28;20045;-78
2022/10/10 09:17:34;;;;;;;;;;;23.40;69.50;;;;;;5015623;28;20547;-78
2022/10/10 09:20:11;;;;;;;3.50;1.77;;;24.00;67.70;;;;;;4997359;28;20301;-78
2022/10/10 09:22:51;;;;;;;9.25;2.25;;;24.60;65.50;;;;;;5015414;28;20038;-77
2022/10/10 09:25:34;;;;;;;7.65;2.83;;;24.70;63.50;;;;;;5014917;28;20022;-77
2022/10/10 09:28:12;;;;;;;2.95;1.80;;;24.30;63.70;;;;;;5014980;28;20529;-77
2022/10/10 09:30:46;;;;;;;6.07;1.92;;;24.00;63.00;;;;;;5015093;28;20073;-77
2022/10/10 09:33:54;;;;;;;8.15;2.13;;;24.10;62.90;;;;;;5014674;28;20462;-77
2022/10/10 09:36:25;;;;;;;2.47;2.00;;;24.40;62.30;;;;;;4915813;29;20032;-78
2022/10/10 09:38:55;;;;;;;3.72;2.40;;;24.80;61.00;;;;;;5002744;28;20046;-77
2022/10/10 09:42:00;;;;;;;8.55;2.03;;;25.00;60.40;;;;;;5015132;28;20079;-76
2022/10/10 09:44:26;;;;;;;5.80;2.15;;;25.20;59.70;;;;;;4915828;29;20542;-77
2022/10/10 09:46:52;;;;;;;5.97;2.08;;;25.90;58.10;;;;;;4900061;29;20452;-76
2022/10/10 09:49:19;;;;;;;5.72;2.28;;;25.80;57.30;;;;;;4915814;29;20114;-77
2022/10/10 09:51:47;;;;;;;6.25;2.05;;;25.50;58.20;;;;;;4899981;29;20076;-77
2022/10/10 09:54:15;;;;;;;8.60;2.20;;;25.60;57.40;;;;;;4915911;29;20087;-77
2022/10/10 09:56:52;;;;;;;5.97;2.72;;;25.10;57.90;;;;;;4915866;29;20044;-78
2022/10/10 09:59:37;;;;;;;3.38;2.00;;;24.90;57.80;;;;;;4915681;29;20032;-77
2022/10/10 10:02:10;;;;;;;6.68;2.00;;;23.60;60.70;;;;;;4914962;29;20044;-77
2022/10/10 10:04:37;;;;;;;8.23;1.98;;;24.10;60.60;;;;;;4915405;29;20028;-77
2022/10/10 10:07:16;;;;;;;2.80;2.03;;;23.90;59.90;;;;;;4915487;29;20032;-77
2022/10/10 10:09:49;;;;;;;6.15;2.40;;;23.00;62.20;;;;;;4915570;29;20160;-77
2022/10/10 10:12:19;;;;;;;5.63;2.28;;;22.60;62.30;;;;;;4915408;29;20072;-76
2022/10/10 10:14:45;;;;;;;7.30;2.45;;;21.90;64.10;;;;;;4948543;28;20038;-76
2022/10/10 10:17:15;;;;;;;5.10;2.33;;;22.20;63.80;;;;;;5013903;28;20053;-76
2022/10/10 10:19:43;;;;;;;9.07;2.33;;;22.10;63.80;;;;;;5013762;28;20054;-76
2022/10/10 10:22:37;;;;;;;7.07;2.15;;;22.10;63.70;;;;;;5013890;28;20064;-77
2022/10/10 10:25:34;;;;;;;4.47;2.25;;;21.80;65.00;;;;;;5013913;28;20034;-76
2022/10/10 10:28:20;;;;;;;11.77;2.85;;;21.20;65.60;;;;;;4995075;28;20104;-77
2022/10/10 10:30:47;;;;;;;9.13;2.50;;;20.60;68.70;;;;;;4996255;28;20125;-68
2022/10/10 10:33:24;;;;;;;6.15;2.13;;;19.90;70.00;;;;;;5013877;28;20029;-68
2022/10/10 10:36:21;;;;;;;6.68;2.35;;;20.00;71.00;;;;;;5013946;28;20033;-68
2022/10/10 10:38:55;;;;;;;3.40;2.33;;;19.90;71.90;;;;;;4996195;28;20026;-68
2022/10/10 10:41:36;;;;;;;9.32;2.97;;;19.80;72.00;;;;;;4995751;28;20034;-68
2022/10/10 10:44:11;;;;;;;7.47;2.92;;;19.80;72.20;;;;;;5013800;28;20421;-68
2022/10/10 10:46:45;;;;;;;8.88;3.08;;;19.60;73.10;;;;;;4996019;28;20379;-68
2022/10/10 10:49:27;;;;;;;4.07;2.95;;;19.40;74.10;;;;;;5013949;28;20032;-68
2022/10/10 10:52:11;;;;;;;4.18;2.63;;;19.60;74.70;;;;;;4995972;28;20036;-68
2022/10/10 10:55:02;;;;;;;5.28;2.95;;;19.90;74.20;;;;;;5013317;28;20101;-68
2022/10/10 10:57:51;;;;;;;8.85;3.28;;;19.80;73.80;;;;;;4995977;28;20117;-68
2022/10/10 11:00:18;;;;;;;;;;;19.50;75.10;;;;;;4981548;28;20167;-68
2022/10/10 11:02:59;;;;;;;7.03;3.08;;;19.60;75.70;;;;;;5013476;28;19916;-69
2022/10/10 11:05:51;;;;;;;6.95;2.97;;;19.60;76.00;;;;;;5013296;28;20030;-68
2022/10/10 11:08:46;;;;;;;4.80;3.28;;;19.90;75.90;;;;;;4995969;28;20025;-68
2022/10/10 11:11:40;;;;;;;11.05;4.13;;;19.50;75.70;;;;;;5013529;28;20041;-68
2022/10/10 11:14:48;;;;;;;6.75;3.20;;;19.40;77.00;;;;;;5016924;28;20481;-68
2022/10/10 11:17:33;;;;;;;8.32;3.42;;;19.60;77.40;;;;;;4999139;28;20042;-69
2022/10/10 11:20:23;;;;;;;4.68;3.08;;;19.80;77.40;;;;;;5017184;28;20069;-69
2022/10/10 11:22:59;;;;;;;5.80;3.20;;;20.20;75.90;;;;;;5017098;28;20081;-69
2022/10/10 11:25:32;;;;;;;5.85;3.30;;;20.30;74.90;;;;;;5017084;28;20454;-68
2022/10/10 11:28:09;;;;;;;6.10;3.10;;;19.80;74.90;;;;;;4999432;28;20116;-68
2022/10/10 11:30:41;;;;;;;5.90;3.20;;;19.90;76.50;;;;;;4999452;28;20040;-68
2022/10/10 11:33:12;;;;;;;6.15;3.10;;;19.70;76.80;;;;;;5017068;28;20029;-68
2022/10/10 11:35:39;;;;;;;5.65;2.85;;;19.60;76.60;;;;;;4999734;28;20198;-68
2022/10/10 11:38:10;;;;;;;6.97;3.45;;;19.60;76.30;;;;;;5016750;28;20026;-68
2022/10/10 11:40:59;;;;;;;9.18;2.72;;;19.40;77.60;;;;;;4999009;28;20034;-68
2022/10/10 11:44:03;;;;;;;5.00;2.63;;;19.40;77.00;;;;;;5016504;28;20038;-68
2022/10/10 11:46:35;;;;;;;5.80;2.83;;;19.40;78.20;;;;;;5016665;28;20030;-68
2022/10/10 11:49:16;;;;;;;4.70;3.60;;;19.00;78.20;;;;;;4998650;28;20057;-68
2022/10/10 11:51:56;;;;;;;6.80;2.80;;;18.80;79.90;;;;;;5016718;28;20037;-68
2022/10/10 11:54:34;;;;;;;5.63;2.78;;;19.20;79.50;;;;;;4985892;28;20040;-72
2022/10/10 11:57:06;;;;;;;6.78;2.35;;;19.40;78.60;;;;;;5003398;28;20386;-70
2022/10/10 11:59:48;;;;;;;9.30;2.80;;;19.30;78.70;;;;;;4986403;28;20073;-68
2022/10/10 12:02:22;;;;;;;5.97;2.58;;;19.10;79.00;;;;;;4975172;28;20125;-68
2022/10/10 12:04:49;;;;;;;8.30;2.70;;;18.90;80.00;;;;;;4968577;28;20640;-71
2022/10/10 12:08:04;;;;;;;5.63;2.58;;;19.00;81.10;;;;;;4968773;28;20034;-73
2022/10/10 12:10:37;;;;;;;8.20;2.67;;;19.40;79.90;;;;;;4977967;28;20050;-72
2022/10/10 12:13:43;;;;;;;8.05;3.10;;;20.20;78.60;;;;;;4980624;28;20034;-68
2022/10/10 12:16:19;;;;;;;4.80;2.80;;;21.20;75.60;;;;;;5000366;28;20049;-69
2022/10/10 12:19:05;;;;;;;9.43;2.83;;;21.80;72.50;;;;;;4986518;28;20104;-68
2022/10/10 12:21:50;;;;;;;9.27;3.08;;;22.10;72.50;;;;;;4985033;28;20038;-72
2022/10/10 12:24:15;;;;;;;7.75;3.25;;;22.00;71.70;;;;;;4967750;28;20475;-68
2022/10/10 12:26:53;;;;;;;8.68;2.70;;;21.60;72.30;;;;;;4986363;28;20030;-69
2022/10/10 12:29:40;;;;;;;5.32;3.17;;;21.40;73.00;;;;;;4990955;28;20084;-68
2022/10/10 12:32:18;;;;;;;8.43;3.05;;;21.10;73.40;;;;;;4996233;28;20027;-69
2022/10/10 12:34:49;;;;;;;6.28;3.10;;;21.40;74.20;;;;;;4995918;28;20026;-68
2022/10/10 12:37:29;;;;;;;7.18;3.30;;;21.50;73.30;;;;;;4996089;28;20030;-68
2022/10/10 12:40:16;;;;;;;10.55;3.20;;;21.40;73.40;;;;;;4996040;28;20113;-69
2022/10/10 12:42:45;;;;;;;7.35;3.53;;;21.50;73.90;;;;;;4995687;28;20114;-68
2022/10/10 12:45:37;;;;;;;5.20;3.15;;;21.70;73.10;;;;;;4996027;28;20062;-68
2022/10/10 12:48:18;;;;;;;6.90;3.05;;;21.50;73.30;;;;;;4941823;28;20030;-68
2022/10/10 12:50:56;;;;;;;10.15;2.95;;;21.20;74.30;;;;;;4995867;28;20105;-68
2022/10/10 12:53:24;;;;;;;5.35;3.05;;;21.20;74.10;;;;;;4995555;28;20035;-68
2022/10/10 12:55:53;;;;;;;8.82;3.20;;;21.20;74.40;;;;;;4995467;28;20450;-68
2022/10/10 12:58:29;;;;;;;4.68;3.03;;;20.90;75.20;;;;;;4978200;28;20466;-68
2022/10/10 13:00:58;;;;;;;8.20;3.55;;;20.70;75.20;;;;;;4995773;28;20418;-68
2022/10/10 13:03:30;;;;;;;7.45;3.45;;;20.50;77.00;;;;;;4978071;28;20037;-69
2022/10/10 13:06:02;;;;;;;7.40;3.85;;;20.40;77.60;;;;;;4995527;28;20034;-68
2022/10/10 13:08:29;;;;;;;13.68;4.28;;;20.30;78.20;;;;;;4978114;28;20455;-68
2022/10/10 13:11:15;;;;;;;5.20;3.72;;;20.10;79.90;;;;;;4977945;28;20037;-68
2022/10/10 13:13:52;;;;;;;12.15;4.03;;;20.00;80.30;;;;;;4994904;28;20034;-68
2022/10/10 13:16:21;;;;;;;8.48;3.60;;;19.90;81.40;;;;;;4994983;28;20451;-69